sensor_id;sensor_type;location;lat;lon;timestamp;temperature;humidity
70107;DHT22;57473;37.508;15.080;2023-03-21T00:00:40;12.90;99.90
70107;DHT22;57473;37.508;15.080;2023-03-21T00:03:07;13.00;99.90
70107;DHT22;57473;37.508;15.080;2023-03-21T00:05:39;12.90;99.90
70107;DHT22;57473;37.508;15.080;2023-03-21T00:08:08;12.90;99.90
70107;DHT22;57473;37.508;15.080;2023-03-21T00:10:35;12.90;99.90
70107;DHT22;57473;37.508;15.080;2023-03-21T00:13:14;12.90;99.90
70107;DHT22;57473;37.508;15.080;2023-03-21T00:15:42;12.90;99.90
70107;DHT22;57473;37.508;15.080;2023-03-21T00:18:45;13.00;99.90
70107;DHT22;57473;37.508;15.080;2023-03-21T00:21:18;13.00;99.90
70107;DHT22;57473;37.508;15.080;2023-03-21T00:24:06;13.00;99.90
70107;DHT22;57473;37.508;15.080;2023-03-21T00:26:33;13.00;99.90
70107;DHT22;57473;37.508;15.080;2023-03-21T00:29:01;13.00;99.90
70107;DHT22;57473;37.508;15.080;2023-03-21T00:31:29;13.00;99.90
70107;DHT22;57473;37.508;15.080;2023-03-21T00:33:56;13.00;99.90
70107;DHT22;57473;37.508;15.080;2023-03-21T00:36:24;13.00;99.90
70107;DHT22;57473;37.508;15.080;2023-03-21T00:38:52;13.00;99.90
70107;DHT22;57473;37.508;15.080;2023-03-21T00:41:20;13.00;99.90
70107;DHT22;57473;37.508;15.080;2023-03-21T00:44:07;13.00;99.90
70107;DHT22;57473;37.508;15.080;2023-03-21T00:46:35;12.90;99.90
70107;DHT22;57473;37.508;15.080;2023-03-21T00:49:17;12.90;99.90
70107;DHT22;57473;37.508;15.080;2023-03-21T00:51:47;12.80;99.90
70107;DHT22;57473;37.508;15.080;2023-03-21T00:54:18;12.80;99.90
70107;DHT22;57473;37.508;15.080;2023-03-21T00:56:45;12.80;99.90
70107;DHT22;57473;37.508;15.080;2023-03-21T00:59:13;12.80;99.90
70107;DHT22;57473;37.508;15.080;2023-03-21T01:01:41;12.70;99.90
70107;DHT22;57473;37.508;15.080;2023-03-21T01:04:09;12.70;99.90
70107;DHT22;57473;37.508;15.080;2023-03-21T01:06:41;12.70;99.90
70107;DHT22;57473;37.508;15.080;2023-03-21T01:09:20;12.70;99.90
70107;DHT22;57473;37.508;15.080;2023-03-21T01:11:50;12.80;99.90
70107;DHT22;57473;37.508;15.080;2023-03-21T01:14:19;12.70;99.90
70107;DHT22;57473;37.508;15.080;2023-03-21T01:16:53;12.70;99.90
70107;DHT22;57473;37.508;15.080;2023-03-21T01:19:23;12.70;99.90
70107;DHT22;57473;37.508;15.080;2023-03-21T01:22:14;12.80;99.90
70107;DHT22;57473;37.508;15.080;2023-03-21T01:24:42;12.80;99.90
70107;DHT22;57473;37.508;15.080;2023-03-21T01:27:22;12.80;99.90
70107;DHT22;57473;37.508;15.080;2023-03-21T01:29:50;12.80;99.90
70107;DHT22;57473;37.508;15.080;2023-03-21T01:32:17;12.80;99.90
70107;DHT22;57473;37.508;15.080;2023-03-21T01:34:45;12.80;99.90
70107;DHT22;57473;37.508;15.080;2023-03-21T01:37:13;12.80;99.90
70107;DHT22;57473;37.508;15.080;2023-03-21T01:39:45;12.80;99.90
70107;DHT22;57473;37.508;15.080;2023-03-21T01:42:13;12.80;99.90
70107;DHT22;57473;37.508;15.080;2023-03-21T01:44:58;12.80;99.90
70107;DHT22;57473;37.508;15.080;2023-03-21T01:47:34;12.80;99.90
70107;DHT22;57473;37.508;15.080;2023-03-21T01:50:17;12.80;99.90
70107;DHT22;57473;37.508;15.080;2023-03-21T01:53:07;12.80;99.90
70107;DHT22;57473;37.508;15.080;2023-03-21T01:55:36;12.80;99.90
70107;DHT22;57473;37.508;15.080;2023-03-21T01:58:11;12.80;99.90
70107;DHT22;57473;37.508;15.080;2023-03-21T02:00:58;12.80;99.90
70107;DHT22;57473;37.508;15.080;2023-03-21T02:03:35;12.80;99.90
70107;DHT22;57473;37.508;15.080;2023-03-21T02:06:49;12.80;99.90
70107;DHT22;57473;37.508;15.080;2023-03-21T02:09:35;12.80;99.90
70107;DHT22;57473;37.508;15.080;2023-03-21T02:12:09;12.80;99.90
70107;DHT22;57473;37.508;15.080;2023-03-21T02:14:37;12.80;99.90
70107;DHT22;57473;37.508;15.080;2023-03-21T02:28:57;12.80;99.90
70107;DHT22;57473;37.508;15.080;2023-03-21T02:37:20;12.70;99.90
70107;DHT22;57473;37.508;15.080;2023-03-21T02:40:24;12.70;99.90
70107;DHT22;57473;37.508;15.080;2023-03-21T02:43:10;12.70;99.90
70107;DHT22;57473;37.508;15.080;2023-03-21T02:45:53;12.70;99.90
70107;DHT22;57473;37.508;15.080;2023-03-21T02:48:30;12.60;99.90
70107;DHT22;57473;37.508;15.080;2023-03-21T02:51:18;12.60;99.90
70107;DHT22;57473;37.508;15.080;2023-03-21T02:53:52;12.60;99.90
70107;DHT22;57473;37.508;15.080;2023-03-21T02:56:41;12.60;99.90
70107;DHT22;57473;37.508;15.080;2023-03-21T02:59:11;12.60;99.90
70107;DHT22;57473;37.508;15.080;2023-03-21T03:01:40;12.60;99.90
70107;DHT22;57473;37.508;15.080;2023-03-21T03:04:23;12.60;99.90
70107;DHT22;57473;37.508;15.080;2023-03-21T03:09:48;12.60;99.90
70107;DHT22;57473;37.508;15.080;2023-03-21T03:20:51;12.60;99.90
70107;DHT22;57473;37.508;15.080;2023-03-21T03:23:52;12.50;99.90
70107;DHT22;57473;37.508;15.080;2023-03-21T03:26:27;12.50;99.90
70107;DHT22;57473;37.508;15.080;2023-03-21T03:29:02;12.50;99.90
70107;DHT22;57473;37.508;15.080;2023-03-21T03:31:38;12.50;99.90
70107;DHT22;57473;37.508;15.080;2023-03-21T03:34:19;12.50;99.90
70107;DHT22;57473;37.508;15.080;2023-03-21T03:36:52;12.50;99.90
70107;DHT22;57473;37.508;15.080;2023-03-21T03:39:42;12.50;99.90
70107;DHT22;57473;37.508;15.080;2023-03-21T03:42:19;12.40;99.90
70107;DHT22;57473;37.508;15.080;2023-03-21T03:45:07;12.40;99.90
70107;DHT22;57473;37.508;15.080;2023-03-21T03:50:40;12.40;99.90
70107;DHT22;57473;37.508;15.080;2023-03-21T03:53:24;12.40;99.90
70107;DHT22;57473;37.508;15.080;2023-03-21T03:55:55;12.40;99.90
70107;DHT22;57473;37.508;15.080;2023-03-21T03:58:24;12.40;99.90
70107;DHT22;57473;37.508;15.080;2023-03-21T04:01:11;12.40;99.90
70107;DHT22;57473;37.508;15.080;2023-03-21T04:03:40;12.40;99.90
70107;DHT22;57473;37.508;15.080;2023-03-21T04:06:18;12.40;99.90
70107;DHT22;57473;37.508;15.080;2023-03-21T04:08:50;12.40;99.90
70107;DHT22;57473;37.508;15.080;2023-03-21T04:11:18;12.40;99.90
70107;DHT22;57473;37.508;15.080;2023-03-21T04:13:50;12.40;99.90
70107;DHT22;57473;37.508;15.080;2023-03-21T04:16:22;12.50;99.90
70107;DHT22;57473;37.508;15.080;2023-03-21T04:18:50;12.50;99.90
70107;DHT22;57473;37.508;15.080;2023-03-21T04:21:18;12.50;99.90
70107;DHT22;57473;37.508;15.080;2023-03-21T04:23:47;12.60;99.90
70107;DHT22;57473;37.508;15.080;2023-03-21T04:26:15;12.60;99.90
70107;DHT22;57473;37.508;15.080;2023-03-21T04:28:53;12.60;99.90
70107;DHT22;57473;37.508;15.080;2023-03-21T04:31:23;12.50;99.90
70107;DHT22;57473;37.508;15.080;2023-03-21T04:34:13;12.50;99.90
70107;DHT22;57473;37.508;15.080;2023-03-21T04:36:46;12.50;99.90
70107;DHT22;57473;37.508;15.080;2023-03-21T04:39:15;12.50;99.90
70107;DHT22;57473;37.508;15.080;2023-03-21T04:41:46;12.50;99.90
70107;DHT22;57473;37.508;15.080;2023-03-21T04:44:15;12.50;99.90
70107;DHT22;57473;37.508;15.080;2023-03-21T04:46:44;12.50;99.90
70107;DHT22;57473;37.508;15.080;2023-03-21T04:49:12;12.50;99.90
70107;DHT22;57473;37.508;15.080;2023-03-21T04:51:41;12.50;99.90
70107;DHT22;57473;37.508;15.080;2023-03-21T04:54:16;12.50;99.90
70107;DHT22;57473;37.508;15.080;2023-03-21T04:56:43;12.50;99.90
70107;DHT22;57473;37.508;15.080;2023-03-21T04:59:14;12.50;99.90
70107;DHT22;57473;37.508;15.080;2023-03-21T05:01:41;12.60;99.90
70107;DHT22;57473;37.508;15.080;2023-03-21T05:04:11;12.60;99.90
70107;DHT22;57473;37.508;15.080;2023-03-21T05:06:40;12.60;99.90
70107;DHT22;57473;37.508;15.080;2023-03-21T05:09:11;12.60;99.90
70107;DHT22;57473;37.508;15.080;2023-03-21T05:11:39;12.60;99.90
70107;DHT22;57473;37.508;15.080;2023-03-21T05:14:11;12.60;99.90
70107;DHT22;57473;37.508;15.080;2023-03-21T05:16:42;12.60;99.90
70107;DHT22;57473;37.508;15.080;2023-03-21T05:19:29;12.60;99.90
70107;DHT22;57473;37.508;15.080;2023-03-21T05:22:04;12.60;99.90
70107;DHT22;57473;37.508;15.080;2023-03-21T05:24:32;12.60;99.90
70107;DHT22;57473;37.508;15.080;2023-03-21T05:27:00;12.60;99.90
70107;DHT22;57473;37.508;15.080;2023-03-21T05:29:32;12.50;99.90
70107;DHT22;57473;37.508;15.080;2023-03-21T05:32:02;12.50;99.90
70107;DHT22;57473;37.508;15.080;2023-03-21T05:34:30;12.50;99.90
70107;DHT22;57473;37.508;15.080;2023-03-21T05:36:59;12.50;99.90
70107;DHT22;57473;37.508;15.080;2023-03-21T05:39:41;12.50;99.90
70107;DHT22;57473;37.508;15.080;2023-03-21T05:42:15;12.50;99.90
70107;DHT22;57473;37.508;15.080;2023-03-21T05:44:45;12.40;99.90
70107;DHT22;57473;37.508;15.080;2023-03-21T05:47:15;12.40;99.90
70107;DHT22;57473;37.508;15.080;2023-03-21T05:49:45;12.40;99.90
70107;DHT22;57473;37.508;15.080;2023-03-21T05:52:14;12.40;99.90
70107;DHT22;57473;37.508;15.080;2023-03-21T05:54:43;12.40;99.90
70107;DHT22;57473;37.508;15.080;2023-03-21T05:57:11;12.40;99.90
70107;DHT22;57473;37.508;15.080;2023-03-21T05:59:57;12.40;99.90
70107;DHT22;57473;37.508;15.080;2023-03-21T06:02:26;12.40;99.90
70107;DHT22;57473;37.508;15.080;2023-03-21T06:04:59;12.50;99.90
70107;DHT22;57473;37.508;15.080;2023-03-21T06:07:27;12.60;99.90
70107;DHT22;57473;37.508;15.080;2023-03-21T06:09:54;12.70;99.90
70107;DHT22;57473;37.508;15.080;2023-03-21T06:12:22;12.80;99.90
70107;DHT22;57473;37.508;15.080;2023-03-21T06:15:22;12.90;99.90
70107;DHT22;57473;37.508;15.080;2023-03-21T06:18:13;13.00;99.90
70107;DHT22;57473;37.508;15.080;2023-03-21T06:20:52;13.10;99.90
70107;DHT22;57473;37.508;15.080;2023-03-21T06:23:20;13.20;99.90
70107;DHT22;57473;37.508;15.080;2023-03-21T06:25:48;13.30;99.90
70107;DHT22;57473;37.508;15.080;2023-03-21T06:28:16;13.40;99.90
70107;DHT22;57473;37.508;15.080;2023-03-21T06:30:43;13.40;99.90
70107;DHT22;57473;37.508;15.080;2023-03-21T06:33:23;13.60;99.90
70107;DHT22;57473;37.508;15.080;2023-03-21T06:35:56;13.70;98.60
70107;DHT22;57473;37.508;15.080;2023-03-21T06:38:25;13.80;98.10
70107;DHT22;57473;37.508;15.080;2023-03-21T06:40:53;14.00;97.70
70107;DHT22;57473;37.508;15.080;2023-03-21T06:43:22;14.10;97.40
70107;DHT22;57473;37.508;15.080;2023-03-21T06:45:50;14.20;96.50
70107;DHT22;57473;37.508;15.080;2023-03-21T06:48:17;14.30;94.80
70107;DHT22;57473;37.508;15.080;2023-03-21T06:50:50;14.40;94.10
70107;DHT22;57473;37.508;15.080;2023-03-21T06:53:21;14.50;93.40
70107;DHT22;57473;37.508;15.080;2023-03-21T06:56:26;14.70;93.40
70107;DHT22;57473;37.508;15.080;2023-03-21T06:58:55;14.80;92.20
70107;DHT22;57473;37.508;15.080;2023-03-21T07:01:45;14.90;92.00
70107;DHT22;57473;37.508;15.080;2023-03-21T07:04:12;14.80;91.50
70107;DHT22;57473;37.508;15.080;2023-03-21T07:06:40;14.90;90.70
70107;DHT22;57473;37.508;15.080;2023-03-21T07:09:08;15.00;90.80
70107;DHT22;57473;37.508;15.080;2023-03-21T07:11:37;15.10;90.40
70107;DHT22;57473;37.508;15.080;2023-03-21T07:14:05;15.20;88.60
70107;DHT22;57473;37.508;15.080;2023-03-21T07:16:32;15.30;88.90
70107;DHT22;57473;37.508;15.080;2023-03-21T07:19:00;15.30;88.00
70107;DHT22;57473;37.508;15.080;2023-03-21T07:21:27;15.30;88.20
70107;DHT22;57473;37.508;15.080;2023-03-21T07:23:55;15.40;89.00
70107;DHT22;57473;37.508;15.080;2023-03-21T07:26:22;15.50;87.10
70107;DHT22;57473;37.508;15.080;2023-03-21T07:28:49;15.60;86.40
70107;DHT22;57473;37.508;15.080;2023-03-21T07:31:17;15.70;84.90
70107;DHT22;57473;37.508;15.080;2023-03-21T07:33:47;15.70;84.50
70107;DHT22;57473;37.508;15.080;2023-03-21T07:36:15;15.70;83.50
70107;DHT22;57473;37.508;15.080;2023-03-21T07:38:45;15.60;83.50
70107;DHT22;57473;37.508;15.080;2023-03-21T07:41:14;15.60;82.90
70107;DHT22;57473;37.508;15.080;2023-03-21T07:43:42;15.60;82.80
70107;DHT22;57473;37.508;15.080;2023-03-21T07:46:09;15.70;82.80
70107;DHT22;57473;37.508;15.080;2023-03-21T07:48:36;15.80;82.30
70107;DHT22;57473;37.508;15.080;2023-03-21T07:51:05;15.80;81.40
70107;DHT22;57473;37.508;15.080;2023-03-21T07:53:34;16.00;80.70
70107;DHT22;57473;37.508;15.080;2023-03-21T07:56:02;16.10;80.00
70107;DHT22;57473;37.508;15.080;2023-03-21T07:58:30;16.00;79.00
70107;DHT22;57473;37.508;15.080;2023-03-21T08:01:00;16.10;80.00
70107;DHT22;57473;37.508;15.080;2023-03-21T08:03:28;16.20;79.50
70107;DHT22;57473;37.508;15.080;2023-03-21T08:05:58;16.30;77.40
70107;DHT22;57473;37.508;15.080;2023-03-21T08:08:27;16.30;76.40
70107;DHT22;57473;37.508;15.080;2023-03-21T08:10:55;16.30;75.00
70107;DHT22;57473;37.508;15.080;2023-03-21T08:13:22;16.30;75.10
70107;DHT22;57473;37.508;15.080;2023-03-21T08:15:50;16.30;74.60
70107;DHT22;57473;37.508;15.080;2023-03-21T08:18:18;16.30;74.30
70107;DHT22;57473;37.508;15.080;2023-03-21T08:20:45;16.10;74.40
70107;DHT22;57473;37.508;15.080;2023-03-21T08:23:12;16.20;73.70
70107;DHT22;57473;37.508;15.080;2023-03-21T08:25:40;16.20;73.60
70107;DHT22;57473;37.508;15.080;2023-03-21T08:28:07;16.30;73.70
70107;DHT22;57473;37.508;15.080;2023-03-21T08:30:34;16.30;73.30
70107;DHT22;57473;37.508;15.080;2023-03-21T08:33:03;16.20;74.50
70107;DHT22;57473;37.508;15.080;2023-03-21T08:35:31;16.40;73.20
70107;DHT22;57473;37.508;15.080;2023-03-21T08:37:58;16.50;71.90
70107;DHT22;57473;37.508;15.080;2023-03-21T08:40:25;16.50;72.30
70107;DHT22;57473;37.508;15.080;2023-03-21T08:42:53;16.40;71.90
70107;DHT22;57473;37.508;15.080;2023-03-21T08:45:20;16.50;72.00
70107;DHT22;57473;37.508;15.080;2023-03-21T08:47:49;16.60;71.30
70107;DHT22;57473;37.508;15.080;2023-03-21T08:50:21;16.60;71.70
70107;DHT22;57473;37.508;15.080;2023-03-21T08:52:49;16.70;71.00
70107;DHT22;57473;37.508;15.080;2023-03-21T08:55:18;16.50;71.30
70107;DHT22;57473;37.508;15.080;2023-03-21T08:57:45;16.60;72.40
70107;DHT22;57473;37.508;15.080;2023-03-21T09:00:15;16.70;72.60
70107;DHT22;57473;37.508;15.080;2023-03-21T09:02:45;16.70;71.60
70107;DHT22;57473;37.508;15.080;2023-03-21T09:05:14;16.80;71.60
70107;DHT22;57473;37.508;15.080;2023-03-21T09:07:43;16.90;71.60
70107;DHT22;57473;37.508;15.080;2023-03-21T09:10:14;17.10;71.80
70107;DHT22;57473;37.508;15.080;2023-03-21T09:12:51;17.10;70.30
70107;DHT22;57473;37.508;15.080;2023-03-21T09:15:20;16.90;72.30
70107;DHT22;57473;37.508;15.080;2023-03-21T09:17:48;16.70;70.80
70107;DHT22;57473;37.508;15.080;2023-03-21T09:20:20;16.80;71.50
70107;DHT22;57473;37.508;15.080;2023-03-21T09:22:52;17.00;70.80
70107;DHT22;57473;37.508;15.080;2023-03-21T09:25:20;17.20;68.70
70107;DHT22;57473;37.508;15.080;2023-03-21T09:27:47;17.30;68.50
70107;DHT22;57473;37.508;15.080;2023-03-21T09:30:18;17.00;69.90
70107;DHT22;57473;37.508;15.080;2023-03-21T09:32:46;16.60;71.50
70107;DHT22;57473;37.508;15.080;2023-03-21T09:35:16;16.60;74.00
70107;DHT22;57473;37.508;15.080;2023-03-21T09:37:46;16.80;73.70
70107;DHT22;57473;37.508;15.080;2023-03-21T09:42:48;17.00;70.30
70107;DHT22;57473;37.508;15.080;2023-03-21T09:45:31;17.10;70.50
70107;DHT22;57473;37.508;15.080;2023-03-21T09:48:04;17.10;71.00
70107;DHT22;57473;37.508;15.080;2023-03-21T09:50:36;17.30;69.30
70107;DHT22;57473;37.508;15.080;2023-03-21T09:53:22;17.20;71.40
70107;DHT22;57473;37.508;15.080;2023-03-21T09:55:51;17.20;71.90
70107;DHT22;57473;37.508;15.080;2023-03-21T09:58:36;17.50;71.80
70107;DHT22;57473;37.508;15.080;2023-03-21T10:04:03;17.70;71.50
70107;DHT22;57473;37.508;15.080;2023-03-21T10:06:34;17.80;69.50
70107;DHT22;57473;37.508;15.080;2023-03-21T10:09:17;18.00;67.60
70107;DHT22;57473;37.508;15.080;2023-03-21T10:12:06;18.00;66.90
70107;DHT22;57473;37.508;15.080;2023-03-21T10:14:46;18.40;67.30
70107;DHT22;57473;37.508;15.080;2023-03-21T10:17:36;18.70;63.50
70107;DHT22;57473;37.508;15.080;2023-03-21T10:20:14;18.60;63.80
70107;DHT22;57473;37.508;15.080;2023-03-21T10:22:43;18.70;63.90
70107;DHT22;57473;37.508;15.080;2023-03-21T10:25:33;18.80;62.10
70107;DHT22;57473;37.508;15.080;2023-03-21T10:28:05;19.00;62.70
70107;DHT22;57473;37.508;15.080;2023-03-21T10:30:45;18.70;60.70
70107;DHT22;57473;37.508;15.080;2023-03-21T10:33:19;18.30;62.80
70107;DHT22;57473;37.508;15.080;2023-03-21T10:36:07;18.20;65.00
70107;DHT22;57473;37.508;15.080;2023-03-21T10:38:43;17.80;66.00
70107;DHT22;57473;37.508;15.080;2023-03-21T10:41:11;17.60;66.80
70107;DHT22;57473;37.508;15.080;2023-03-21T10:43:40;17.70;64.50
70107;DHT22;57473;37.508;15.080;2023-03-21T10:46:12;17.70;65.60
70107;DHT22;57473;37.508;15.080;2023-03-21T10:48:41;17.90;64.90
70107;DHT22;57473;37.508;15.080;2023-03-21T10:51:19;17.90;65.40
70107;DHT22;57473;37.508;15.080;2023-03-21T10:53:57;17.80;66.30
70107;DHT22;57473;37.508;15.080;2023-03-21T10:56:32;17.90;65.50
70107;DHT22;57473;37.508;15.080;2023-03-21T10:59:04;17.90;66.30
70107;DHT22;57473;37.508;15.080;2023-03-21T11:01:39;17.40;66.50
70107;DHT22;57473;37.508;15.080;2023-03-21T11:04:15;17.30;67.30
70107;DHT22;57473;37.508;15.080;2023-03-21T11:06:55;17.70;66.60
70107;DHT22;57473;37.508;15.080;2023-03-21T11:09:48;18.20;63.70
70107;DHT22;57473;37.508;15.080;2023-03-21T11:12:33;18.20;63.40
70107;DHT22;57473;37.508;15.080;2023-03-21T11:18:33;18.00;64.90
70107;DHT22;57473;37.508;15.080;2023-03-21T11:21:09;18.10;63.60
70107;DHT22;57473;37.508;15.080;2023-03-21T11:23:45;18.20;63.60
70107;DHT22;57473;37.508;15.080;2023-03-21T11:26:20;18.40;63.30
70107;DHT22;57473;37.508;15.080;2023-03-21T11:28:50;18.70;61.90
70107;DHT22;57473;37.508;15.080;2023-03-21T11:31:18;18.80;61.30
70107;DHT22;57473;37.508;15.080;2023-03-21T11:33:56;18.60;62.20
70107;DHT22;57473;37.508;15.080;2023-03-21T11:36:31;19.20;60.30
70107;DHT22;57473;37.508;15.080;2023-03-21T11:39:14;19.60;57.90
70107;DHT22;57473;37.508;15.080;2023-03-21T11:41:41;19.40;56.30
70107;DHT22;57473;37.508;15.080;2023-03-21T11:44:25;19.20;57.70
70107;DHT22;57473;37.508;15.080;2023-03-21T11:46:53;18.60;60.30
70107;DHT22;57473;37.508;15.080;2023-03-21T11:49:22;18.50;61.00
70107;DHT22;57473;37.508;15.080;2023-03-21T11:52:19;18.70;61.30
70107;DHT22;57473;37.508;15.080;2023-03-21T11:58:10;19.10;59.90
70107;DHT22;57473;37.508;15.080;2023-03-21T12:00:57;19.20;58.90
70107;DHT22;57473;37.508;15.080;2023-03-21T12:08:50;19.80;57.80
70107;DHT22;57473;37.508;15.080;2023-03-21T12:17:48;19.20;59.30
70107;DHT22;57473;37.508;15.080;2023-03-21T12:27:00;18.60;62.40
70107;DHT22;57473;37.508;15.080;2023-03-21T12:32:00;18.30;63.60
70107;DHT22;57473;37.508;15.080;2023-03-21T12:37:30;18.30;65.50
70107;DHT22;57473;37.508;15.080;2023-03-21T12:40:33;18.70;64.10
70107;DHT22;57473;37.508;15.080;2023-03-21T12:45:46;17.90;67.70
70107;DHT22;57473;37.508;15.080;2023-03-21T12:48:51;17.80;68.60
70107;DHT22;57473;37.508;15.080;2023-03-21T12:51:28;17.90;69.00
70107;DHT22;57473;37.508;15.080;2023-03-21T12:54:06;18.10;67.00
70107;DHT22;57473;37.508;15.080;2023-03-21T12:56:49;18.40;66.20
70107;DHT22;57473;37.508;15.080;2023-03-21T13:02:30;17.70;67.90
70107;DHT22;57473;37.508;15.080;2023-03-21T13:05:49;17.60;69.80
70107;DHT22;57473;37.508;15.080;2023-03-21T13:07:55;17.70;69.00
70107;DHT22;57473;37.508;15.080;2023-03-21T13:10:24;18.00;67.90
70107;DHT22;57473;37.508;15.080;2023-03-21T13:15:48;18.40;65.70
70107;DHT22;57473;37.508;15.080;2023-03-21T13:21:20;18.10;65.50
70107;DHT22;57473;37.508;15.080;2023-03-21T13:24:03;18.00;65.40
70107;DHT22;57473;37.508;15.080;2023-03-21T13:26:41;17.90;65.40
70107;DHT22;57473;37.508;15.080;2023-03-21T13:29:41;18.00;65.00
70107;DHT22;57473;37.508;15.080;2023-03-21T13:34:58;18.20;63.00
70107;DHT22;57473;37.508;15.080;2023-03-21T13:37:34;18.20;62.30
70107;DHT22;57473;37.508;15.080;2023-03-21T13:40:07;18.40;60.80
70107;DHT22;57473;37.508;15.080;2023-03-21T13:42:51;18.30;60.30
70107;DHT22;57473;37.508;15.080;2023-03-21T13:48:03;17.90;61.40
70107;DHT22;57473;37.508;15.080;2023-03-21T13:51:02;17.90;61.80
70107;DHT22;57473;37.508;15.080;2023-03-21T13:53:32;18.30;61.30
70107;DHT22;57473;37.508;15.080;2023-03-21T14:06:49;18.70;57.20
70107;DHT22;57473;37.508;15.080;2023-03-21T14:11:49;18.00;58.30
70107;DHT22;57473;37.508;15.080;2023-03-21T14:14:25;18.00;58.30
70107;DHT22;57473;37.508;15.080;2023-03-21T14:16:55;17.90;57.50
70107;DHT22;57473;37.508;15.080;2023-03-21T14:19:29;18.00;57.80
70107;DHT22;57473;37.508;15.080;2023-03-21T14:21:57;18.00;58.30
70107;DHT22;57473;37.508;15.080;2023-03-21T14:24:25;18.10;58.50
70107;DHT22;57473;37.508;15.080;2023-03-21T14:26:53;18.30;57.60
70107;DHT22;57473;37.508;15.080;2023-03-21T14:29:32;18.30;58.60
70107;DHT22;57473;37.508;15.080;2023-03-21T14:32:01;18.00;60.10
70107;DHT22;57473;37.508;15.080;2023-03-21T14:34:32;17.70;61.50
70107;DHT22;57473;37.508;15.080;2023-03-21T14:37:01;17.70;61.60
70107;DHT22;57473;37.508;15.080;2023-03-21T14:39:32;17.80;61.60
70107;DHT22;57473;37.508;15.080;2023-03-21T14:42:05;17.80;61.50
70107;DHT22;57473;37.508;15.080;2023-03-21T14:44:37;17.90;61.10
70107;DHT22;57473;37.508;15.080;2023-03-21T14:47:24;17.90;61.20
70107;DHT22;57473;37.508;15.080;2023-03-21T14:49:52;17.60;63.10
70107;DHT22;57473;37.508;15.080;2023-03-21T14:52:31;17.80;64.40
70107;DHT22;57473;37.508;15.080;2023-03-21T14:55:00;17.80;67.80
70107;DHT22;57473;37.508;15.080;2023-03-21T14:57:31;17.70;67.80
70107;DHT22;57473;37.508;15.080;2023-03-21T15:00:03;17.60;68.70
70107;DHT22;57473;37.508;15.080;2023-03-21T15:02:41;17.70;69.40
70107;DHT22;57473;37.508;15.080;2023-03-21T15:07:53;17.80;69.60
70107;DHT22;57473;37.508;15.080;2023-03-21T15:10:21;17.80;69.60
70107;DHT22;57473;37.508;15.080;2023-03-21T15:12:54;17.70;70.10
70107;DHT22;57473;37.508;15.080;2023-03-21T15:15:24;17.50;71.20
70107;DHT22;57473;37.508;15.080;2023-03-21T15:17:55;17.20;73.20
70107;DHT22;57473;37.508;15.080;2023-03-21T15:20:27;17.00;75.90
70107;DHT22;57473;37.508;15.080;2023-03-21T15:23:15;17.00;77.40
70107;DHT22;57473;37.508;15.080;2023-03-21T15:25:44;16.90;78.80
70107;DHT22;57473;37.508;15.080;2023-03-21T15:28:12;16.80;80.20
70107;DHT22;57473;37.508;15.080;2023-03-21T15:30:49;16.80;79.40
70107;DHT22;57473;37.508;15.080;2023-03-21T15:33:18;16.90;78.60
70107;DHT22;57473;37.508;15.080;2023-03-21T15:35:50;16.70;79.40
70107;DHT22;57473;37.508;15.080;2023-03-21T15:38:31;16.70;79.80
70107;DHT22;57473;37.508;15.080;2023-03-21T15:43:54;16.50;81.50
70107;DHT22;57473;37.508;15.080;2023-03-21T15:49:23;16.40;83.10
70107;DHT22;57473;37.508;15.080;2023-03-21T15:54:35;16.30;83.00
70107;DHT22;57473;37.508;15.080;2023-03-21T15:57:25;16.30;83.70
70107;DHT22;57473;37.508;15.080;2023-03-21T16:02:40;16.30;83.80
70107;DHT22;57473;37.508;15.080;2023-03-21T16:10:34;16.20;83.50
70107;DHT22;57473;37.508;15.080;2023-03-21T16:13:03;16.10;83.00
70107;DHT22;57473;37.508;15.080;2023-03-21T16:15:31;16.10;83.30
70107;DHT22;57473;37.508;15.080;2023-03-21T16:18:01;16.10;83.80
70107;DHT22;57473;37.508;15.080;2023-03-21T16:20:40;16.20;83.50
70107;DHT22;57473;37.508;15.080;2023-03-21T16:23:10;16.10;83.30
70107;DHT22;57473;37.508;15.080;2023-03-21T16:25:38;16.10;84.00
70107;DHT22;57473;37.508;15.080;2023-03-21T16:28:12;16.10;83.60
70107;DHT22;57473;37.508;15.080;2023-03-21T16:30:40;16.10;83.60
70107;DHT22;57473;37.508;15.080;2023-03-21T16:33:11;16.00;84.20
70107;DHT22;57473;37.508;15.080;2023-03-21T16:35:39;16.00;84.90
70107;DHT22;57473;37.508;15.080;2023-03-21T16:38:09;16.00;84.80
70107;DHT22;57473;37.508;15.080;2023-03-21T16:40:40;16.00;85.10
70107;DHT22;57473;37.508;15.080;2023-03-21T16:43:09;16.00;85.20
70107;DHT22;57473;37.508;15.080;2023-03-21T16:45:37;16.00;85.10
70107;DHT22;57473;37.508;15.080;2023-03-21T16:48:04;16.00;85.10
70107;DHT22;57473;37.508;15.080;2023-03-21T16:50:45;15.90;84.10
70107;DHT22;57473;37.508;15.080;2023-03-21T16:53:12;15.90;83.10
70107;DHT22;57473;37.508;15.080;2023-03-21T16:55:40;15.90;82.70
70107;DHT22;57473;37.508;15.080;2023-03-21T16:58:09;15.90;83.10
70107;DHT22;57473;37.508;15.080;2023-03-21T17:00:37;15.90;83.80
70107;DHT22;57473;37.508;15.080;2023-03-21T17:03:14;15.90;84.10
70107;DHT22;57473;37.508;15.080;2023-03-21T17:05:45;15.90;84.20
70107;DHT22;57473;37.508;15.080;2023-03-21T17:08:18;15.90;84.10
70107;DHT22;57473;37.508;15.080;2023-03-21T17:10:45;15.90;83.60
70107;DHT22;57473;37.508;15.080;2023-03-21T17:13:13;15.90;83.50
70107;DHT22;57473;37.508;15.080;2023-03-21T17:15:40;15.90;83.30
70107;DHT22;57473;37.508;15.080;2023-03-21T17:18:09;15.90;83.00
70107;DHT22;57473;37.508;15.080;2023-03-21T17:20:37;15.80;82.30
70107;DHT22;57473;37.508;15.080;2023-03-21T17:23:07;15.80;80.90
70107;DHT22;57473;37.508;15.080;2023-03-21T17:25:36;15.70;80.00
70107;DHT22;57473;37.508;15.080;2023-03-21T17:28:03;15.70;80.80
70107;DHT22;57473;37.508;15.080;2023-03-21T17:30:33;15.70;80.50
70107;DHT22;57473;37.508;15.080;2023-03-21T17:33:01;15.70;78.30
70107;DHT22;57473;37.508;15.080;2023-03-21T17:35:28;15.70;78.40
70107;DHT22;57473;37.508;15.080;2023-03-21T17:37:56;15.70;78.50
70107;DHT22;57473;37.508;15.080;2023-03-21T17:40:29;15.70;79.10
70107;DHT22;57473;37.508;15.080;2023-03-21T17:42:58;15.70;78.70
70107;DHT22;57473;37.508;15.080;2023-03-21T17:45:27;15.60;77.20
70107;DHT22;57473;37.508;15.080;2023-03-21T17:47:54;15.60;78.70
70107;DHT22;57473;37.508;15.080;2023-03-21T17:50:24;15.50;80.10